sensor_id;sensor_type;location;lat;lon;timestamp;P1;durP1;ratioP1;P2;durP2;ratioP2
6825;SDS011;3451;52.476;13.316;2023-04-03T00:27:14;9.83;;;1.80;;
6825;SDS011;3451;52.476;13.316;2023-04-03T00:29:41;7.80;;;1.90;;
6825;SDS011;3451;52.476;13.316;2023-04-03T00:32:08;6.90;;;1.90;;
6825;SDS011;3451;52.476;13.316;2023-04-03T00:34:34;5.67;;;1.90;;
6825;SDS011;3451;52.476;13.316;2023-04-03T00:37:00;3.70;;;1.60;;
6825;SDS011;3451;52.476;13.316;2023-04-03T00:39:27;5.73;;;1.77;;
6825;SDS011;3451;52.476;13.316;2023-04-03T00:41:53;5.90;;;1.90;;
6825;SDS011;3451;52.476;13.316;2023-04-03T00:47:07;4.33;;;1.57;;
6825;SDS011;3451;52.476;13.316;2023-04-03T00:49:34;7.87;;;2.37;;
6825;SDS011;3451;52.476;13.316;2023-04-03T00:52:01;5.33;;;2.00;;
6825;SDS011;3451;52.476;13.316;2023-04-03T00:54:28;5.37;;;1.87;;
6825;SDS011;3451;52.476;13.316;2023-04-03T00:56:55;10.87;;;2.17;;
6825;SDS011;3451;52.476;13.316;2023-04-03T00:59:24;6.23;;;1.97;;
6825;SDS011;3451;52.476;13.316;2023-04-03T01:01:53;3.50;;;1.50;;
6825;SDS011;3451;52.476;13.316;2023-04-03T01:04:35;7.47;;;2.00;;
6825;SDS011;3451;52.476;13.316;2023-04-03T01:07:25;6.13;;;1.70;;
6825;SDS011;3451;52.476;13.316;2023-04-03T01:09:51;7.53;;;2.27;;
6825;SDS011;3451;52.476;13.316;2023-04-03T01:12:20;5.77;;;1.73;;
6825;SDS011;3451;52.476;13.316;2023-04-03T01:14:48;4.00;;;1.67;;
6825;SDS011;3451;52.476;13.316;2023-04-03T01:17:24;5.67;;;1.90;;
6825;SDS011;3451;52.476;13.316;2023-04-03T01:19:56;4.20;;;1.50;;
6825;SDS011;3451;52.476;13.316;2023-04-03T01:22:25;4.20;;;1.80;;
6825;SDS011;3451;52.476;13.316;2023-04-03T01:29:46;5.23;;;1.70;;
6825;SDS011;3451;52.476;13.316;2023-04-03T01:32:13;6.40;;;2.40;;
6825;SDS011;3451;52.476;13.316;2023-04-03T01:34:39;7.00;;;1.80;;
6825;SDS011;3451;52.476;13.316;2023-04-03T01:37:05;6.53;;;2.07;;
6825;SDS011;3451;52.476;13.316;2023-04-03T01:39:32;7.50;;;2.10;;
6825;SDS011;3451;52.476;13.316;2023-04-03T01:41:58;9.20;;;2.00;;
6825;SDS011;3451;52.476;13.316;2023-04-03T01:44:25;5.03;;;1.60;;
6825;SDS011;3451;52.476;13.316;2023-04-03T01:46:51;6.10;;;1.50;;
6825;SDS011;3451;52.476;13.316;2023-04-03T01:49:18;8.07;;;1.80;;
6825;SDS011;3451;52.476;13.316;2023-04-03T01:51:44;6.00;;;1.73;;
6825;SDS011;3451;52.476;13.316;2023-04-03T01:54:10;5.20;;;2.10;;
6825;SDS011;3451;52.476;13.316;2023-04-03T01:56:36;7.10;;;1.90;;
6825;SDS011;3451;52.476;13.316;2023-04-03T01:59:04;3.80;;;1.60;;
6825;SDS011;3451;52.476;13.316;2023-04-03T02:01:30;4.57;;;2.07;;
6825;SDS011;3451;52.476;13.316;2023-04-03T02:03:57;7.03;;;1.80;;
6825;SDS011;3451;52.476;13.316;2023-04-03T02:06:23;4.27;;;1.80;;
6825;SDS011;3451;52.476;13.316;2023-04-03T02:08:49;6.03;;;2.17;;
6825;SDS011;3451;52.476;13.316;2023-04-03T02:11:16;6.10;;;2.00;;
6825;SDS011;3451;52.476;13.316;2023-04-03T02:13:42;6.97;;;1.80;;
6825;SDS011;3451;52.476;13.316;2023-04-03T02:16:09;5.67;;;1.80;;
6825;SDS011;3451;52.476;13.316;2023-04-03T02:18:36;5.47;;;1.73;;
6825;SDS011;3451;52.476;13.316;2023-04-03T02:21:02;7.43;;;2.30;;
6825;SDS011;3451;52.476;13.316;2023-04-03T02:23:29;5.97;;;1.73;;
6825;SDS011;3451;52.476;13.316;2023-04-03T02:26:05;10.67;;;2.20;;
6825;SDS011;3451;52.476;13.316;2023-04-03T02:28:32;7.27;;;2.20;;
6825;SDS011;3451;52.476;13.316;2023-04-03T02:30:58;4.97;;;2.00;;
6825;SDS011;3451;52.476;13.316;2023-04-03T02:33:25;5.13;;;2.20;;
6825;SDS011;3451;52.476;13.316;2023-04-03T02:35:54;13.10;;;2.40;;
6825;SDS011;3451;52.476;13.316;2023-04-03T02:38:21;6.80;;;2.27;;
6825;SDS011;3451;52.476;13.316;2023-04-03T02:40:48;5.73;;;2.00;;
6825;SDS011;3451;52.476;13.316;2023-04-03T02:43:14;4.60;;;1.90;;
6825;SDS011;3451;52.476;13.316;2023-04-03T02:45:40;5.97;;;2.20;;
6825;SDS011;3451;52.476;13.316;2023-04-03T02:48:07;4.13;;;1.80;;
6825;SDS011;3451;52.476;13.316;2023-04-03T02:50:33;9.07;;;2.30;;
6825;SDS011;3451;52.476;13.316;2023-04-03T02:53:00;5.43;;;1.53;;
6825;SDS011;3451;52.476;13.316;2023-04-03T02:55:26;4.37;;;1.87;;
6825;SDS011;3451;52.476;13.316;2023-04-03T02:57:52;4.10;;;1.83;;
6825;SDS011;3451;52.476;13.316;2023-04-03T03:00:19;4.83;;;1.80;;
6825;SDS011;3451;52.476;13.316;2023-04-03T03:02:45;7.67;;;1.93;;
6825;SDS011;3451;52.476;13.316;2023-04-03T03:05:11;3.77;;;1.90;;
6825;SDS011;3451;52.476;13.316;2023-04-03T03:07:38;5.07;;;1.90;;
6825;SDS011;3451;52.476;13.316;2023-04-03T03:10:04;6.97;;;2.10;;
6825;SDS011;3451;52.476;13.316;2023-04-03T03:12:31;9.23;;;2.13;;
6825;SDS011;3451;52.476;13.316;2023-04-03T03:14:58;5.83;;;2.30;;
6825;SDS011;3451;52.476;13.316;2023-04-03T03:17:25;6.33;;;2.10;;
6825;SDS011;3451;52.476;13.316;2023-04-03T03:19:51;7.30;;;2.27;;
6825;SDS011;3451;52.476;13.316;2023-04-03T03:22:18;4.63;;;2.00;;
6825;SDS011;3451;52.476;13.316;2023-04-03T03:24:44;6.50;;;2.10;;
6825;SDS011;3451;52.476;13.316;2023-04-03T03:27:10;5.87;;;2.07;;
6825;SDS011;3451;52.476;13.316;2023-04-03T03:29:38;7.10;;;2.10;;
6825;SDS011;3451;52.476;13.316;2023-04-03T03:32:04;5.70;;;2.43;;
6825;SDS011;3451;52.476;13.316;2023-04-03T03:34:30;5.10;;;2.27;;
6825;SDS011;3451;52.476;13.316;2023-04-03T03:36:57;6.57;;;2.50;;
6825;SDS011;3451;52.476;13.316;2023-04-03T03:39:23;8.97;;;2.00;;
6825;SDS011;3451;52.476;13.316;2023-04-03T03:41:49;5.87;;;2.00;;
6825;SDS011;3451;52.476;13.316;2023-04-03T03:44:16;4.90;;;1.93;;
6825;SDS011;3451;52.476;13.316;2023-04-03T03:46:42;7.80;;;2.50;;
6825;SDS011;3451;52.476;13.316;2023-04-03T03:49:08;11.60;;;2.40;;
6825;SDS011;3451;52.476;13.316;2023-04-03T03:51:34;10.07;;;2.47;;
6825;SDS011;3451;52.476;13.316;2023-04-03T03:54:01;6.73;;;2.23;;
6825;SDS011;3451;52.476;13.316;2023-04-03T03:56:27;5.30;;;2.30;;
6825;SDS011;3451;52.476;13.316;2023-04-03T03:58:54;5.67;;;2.30;;
6825;SDS011;3451;52.476;13.316;2023-04-03T04:01:25;9.73;;;2.30;;
6825;SDS011;3451;52.476;13.316;2023-04-03T04:03:51;4.83;;;2.20;;
6825;SDS011;3451;52.476;13.316;2023-04-03T04:06:20;5.63;;;2.07;;
6825;SDS011;3451;52.476;13.316;2023-04-03T04:08:47;6.00;;;2.23;;
6825;SDS011;3451;52.476;13.316;2023-04-03T04:11:13;5.77;;;2.63;;
6825;SDS011;3451;52.476;13.316;2023-04-03T04:13:39;8.10;;;2.20;;
6825;SDS011;3451;52.476;13.316;2023-04-03T04:16:06;4.77;;;2.30;;
6825;SDS011;3451;52.476;13.316;2023-04-03T04:18:33;5.93;;;2.17;;
6825;SDS011;3451;52.476;13.316;2023-04-03T04:20:59;8.07;;;2.33;;
6825;SDS011;3451;52.476;13.316;2023-04-03T04:23:26;5.60;;;1.97;;
6825;SDS011;3451;52.476;13.316;2023-04-03T04:25:52;11.43;;;3.10;;
6825;SDS011;3451;52.476;13.316;2023-04-03T04:28:18;9.00;;;2.60;;
6825;SDS011;3451;52.476;13.316;2023-04-03T04:30:45;5.90;;;1.93;;
6825;SDS011;3451;52.476;13.316;2023-04-03T04:33:11;7.20;;;2.27;;
6825;SDS011;3451;52.476;13.316;2023-04-03T04:35:37;4.70;;;1.83;;
6825;SDS011;3451;52.476;13.316;2023-04-03T04:38:04;10.33;;;3.17;;
6825;SDS011;3451;52.476;13.316;2023-04-03T04:40:30;9.43;;;2.33;;
6825;SDS011;3451;52.476;13.316;2023-04-03T04:42:57;5.83;;;2.17;;
6825;SDS011;3451;52.476;13.316;2023-04-03T04:45:23;10.53;;;2.20;;
6825;SDS011;3451;52.476;13.316;2023-04-03T04:47:49;11.30;;;2.97;;
6825;SDS011;3451;52.476;13.316;2023-04-03T04:50:17;6.53;;;2.20;;
6825;SDS011;3451;52.476;13.316;2023-04-03T04:52:44;9.53;;;2.57;;
6825;SDS011;3451;52.476;13.316;2023-04-03T04:55:10;7.87;;;2.77;;
6825;SDS011;3451;52.476;13.316;2023-04-03T04:57:36;6.77;;;2.60;;
6825;SDS011;3451;52.476;13.316;2023-04-03T05:00:05;8.10;;;2.80;;
6825;SDS011;3451;52.476;13.316;2023-04-03T05:02:31;8.90;;;3.33;;
6825;SDS011;3451;52.476;13.316;2023-04-03T05:04:58;5.50;;;2.30;;
6825;SDS011;3451;52.476;13.316;2023-04-03T05:07:24;9.77;;;2.43;;
6825;SDS011;3451;52.476;13.316;2023-04-03T05:09:50;8.47;;;2.37;;
6825;SDS011;3451;52.476;13.316;2023-04-03T05:12:17;8.17;;;2.07;;
6825;SDS011;3451;52.476;13.316;2023-04-03T05:14:43;5.57;;;2.13;;
6825;SDS011;3451;52.476;13.316;2023-04-03T05:17:09;3.97;;;1.77;;
6825;SDS011;3451;52.476;13.316;2023-04-03T05:19:35;6.63;;;1.93;;
6825;SDS011;3451;52.476;13.316;2023-04-03T05:22:02;6.50;;;1.77;;
6825;SDS011;3451;52.476;13.316;2023-04-03T05:24:28;8.10;;;2.13;;
6825;SDS011;3451;52.476;13.316;2023-04-03T05:26:55;7.90;;;2.20;;
6825;SDS011;3451;52.476;13.316;2023-04-03T05:29:21;5.47;;;1.90;;
6825;SDS011;3451;52.476;13.316;2023-04-03T05:31:49;4.60;;;1.70;;
6825;SDS011;3451;52.476;13.316;2023-04-03T05:34:15;6.77;;;1.70;;
6825;SDS011;3451;52.476;13.316;2023-04-03T05:36:42;6.07;;;2.20;;
6825;SDS011;3451;52.476;13.316;2023-04-03T05:39:09;8.53;;;2.03;;
6825;SDS011;3451;52.476;13.316;2023-04-03T05:41:35;6.17;;;2.00;;
6825;SDS011;3451;52.476;13.316;2023-04-03T05:44:01;8.33;;;2.13;;
6825;SDS011;3451;52.476;13.316;2023-04-03T05:46:28;6.40;;;1.90;;
6825;SDS011;3451;52.476;13.316;2023-04-03T05:48:54;7.37;;;2.00;;
6825;SDS011;3451;52.476;13.316;2023-04-03T05:51:24;8.20;;;1.53;;
6825;SDS011;3451;52.476;13.316;2023-04-03T05:53:56;7.33;;;2.00;;
6825;SDS011;3451;52.476;13.316;2023-04-03T05:56:25;5.17;;;1.90;;
6825;SDS011;3451;52.476;13.316;2023-04-03T05:58:52;7.33;;;2.77;;
6825;SDS011;3451;52.476;13.316;2023-04-03T06:01:18;4.33;;;1.60;;
6825;SDS011;3451;52.476;13.316;2023-04-03T06:03:44;3.80;;;1.80;;
6825;SDS011;3451;52.476;13.316;2023-04-03T06:06:12;7.63;;;1.90;;
6825;SDS011;3451;52.476;13.316;2023-04-03T06:08:39;6.43;;;2.10;;
6825;SDS011;3451;52.476;13.316;2023-04-03T06:11:05;7.77;;;2.33;;
6825;SDS011;3451;52.476;13.316;2023-04-03T06:13:32;10.60;;;2.13;;
6825;SDS011;3451;52.476;13.316;2023-04-03T06:15:59;6.27;;;2.20;;
6825;SDS011;3451;52.476;13.316;2023-04-03T06:18:25;6.10;;;1.60;;
6825;SDS011;3451;52.476;13.316;2023-04-03T06:20:52;5.60;;;1.83;;
6825;SDS011;3451;52.476;13.316;2023-04-03T06:23:18;8.70;;;2.10;;
6825;SDS011;3451;52.476;13.316;2023-04-03T06:25:44;7.03;;;2.00;;
6825;SDS011;3451;52.476;13.316;2023-04-03T06:28:11;6.40;;;1.77;;
6825;SDS011;3451;52.476;13.316;2023-04-03T06:30:37;7.30;;;2.20;;
6825;SDS011;3451;52.476;13.316;2023-04-03T06:33:04;5.17;;;1.80;;
6825;SDS011;3451;52.476;13.316;2023-04-03T06:35:31;6.87;;;2.30;;
6825;SDS011;3451;52.476;13.316;2023-04-03T06:37:57;5.50;;;2.00;;
6825;SDS011;3451;52.476;13.316;2023-04-03T06:40:24;6.57;;;2.37;;
6825;SDS011;3451;52.476;13.316;2023-04-03T06:42:51;6.93;;;2.00;;
6825;SDS011;3451;52.476;13.316;2023-04-03T06:45:17;4.63;;;1.80;;
6825;SDS011;3451;52.476;13.316;2023-04-03T06:47:43;5.07;;;1.77;;
6825;SDS011;3451;52.476;13.316;2023-04-03T06:50:11;3.03;;;1.63;;
6825;SDS011;3451;52.476;13.316;2023-04-03T06:52:40;7.90;;;1.73;;
6825;SDS011;3451;52.476;13.316;2023-04-03T06:55:06;5.30;;;1.77;;
6825;SDS011;3451;52.476;13.316;2023-04-03T06:57:33;6.40;;;1.60;;
6825;SDS011;3451;52.476;13.316;2023-04-03T06:59:59;8.73;;;1.60;;
6825;SDS011;3451;52.476;13.316;2023-04-03T07:02:26;3.93;;;1.60;;
6825;SDS011;3451;52.476;13.316;2023-04-03T07:04:52;4.97;;;1.73;;
6825;SDS011;3451;52.476;13.316;2023-04-03T07:07:19;5.10;;;1.60;;
6825;SDS011;3451;52.476;13.316;2023-04-03T07:09:45;4.40;;;1.40;;
6825;SDS011;3451;52.476;13.316;2023-04-03T07:12:13;6.43;;;2.03;;
6825;SDS011;3451;52.476;13.316;2023-04-03T07:14:41;5.50;;;1.57;;
6825;SDS011;3451;52.476;13.316;2023-04-03T07:17:07;6.67;;;1.90;;
6825;SDS011;3451;52.476;13.316;2023-04-03T07:19:33;6.70;;;1.70;;
6825;SDS011;3451;52.476;13.316;2023-04-03T07:22:00;6.60;;;1.90;;
6825;SDS011;3451;52.476;13.316;2023-04-03T07:24:27;4.90;;;1.57;;
6825;SDS011;3451;52.476;13.316;2023-04-03T07:26:53;4.27;;;1.20;;
6825;SDS011;3451;52.476;13.316;2023-04-03T07:29:20;3.87;;;1.33;;
6825;SDS011;3451;52.476;13.316;2023-04-03T07:31:47;3.30;;;1.20;;
6825;SDS011;3451;52.476;13.316;2023-04-03T07:34:14;2.97;;;1.43;;
6825;SDS011;3451;52.476;13.316;2023-04-03T07:36:40;5.20;;;1.40;;
6825;SDS011;3451;52.476;13.316;2023-04-03T07:39:09;3.80;;;1.20;;
6825;SDS011;3451;52.476;13.316;2023-04-03T07:41:35;4.10;;;1.20;;
6825;SDS011;3451;52.476;13.316;2023-04-03T07:44:02;3.43;;;1.30;;
6825;SDS011;3451;52.476;13.316;2023-04-03T07:46:28;4.17;;;1.40;;
6825;SDS011;3451;52.476;13.316;2023-04-03T07:48:56;3.30;;;1.40;;
6825;SDS011;3451;52.476;13.316;2023-04-03T07:51:23;4.17;;;1.50;;
6825;SDS011;3451;52.476;13.316;2023-04-03T07:53:50;4.40;;;1.10;;
6825;SDS011;3451;52.476;13.316;2023-04-03T07:56:17;5.97;;;1.20;;
6825;SDS011;3451;52.476;13.316;2023-04-03T07:58:43;4.50;;;1.40;;
6825;SDS011;3451;52.476;13.316;2023-04-03T08:01:09;3.50;;;1.43;;
6825;SDS011;3451;52.476;13.316;2023-04-03T08:03:36;4.03;;;1.57;;
6825;SDS011;3451;52.476;13.316;2023-04-03T08:06:04;4.90;;;1.40;;
6825;SDS011;3451;52.476;13.316;2023-04-03T08:08:36;3.73;;;1.30;;
6825;SDS011;3451;52.476;13.316;2023-04-03T08:11:03;3.97;;;1.30;;
6825;SDS011;3451;52.476;13.316;2023-04-03T08:13:31;4.87;;;1.70;;
6825;SDS011;3451;52.476;13.316;2023-04-03T08:15:57;2.87;;;1.20;;
6825;SDS011;3451;52.476;13.316;2023-04-03T08:18:25;3.47;;;1.30;;
6825;SDS011;3451;52.476;13.316;2023-04-03T08:20:52;5.47;;;1.40;;
6825;SDS011;3451;52.476;13.316;2023-04-03T08:23:19;7.17;;;1.70;;
6825;SDS011;3451;52.476;13.316;2023-04-03T08:25:46;6.13;;;1.60;;
6825;SDS011;3451;52.476;13.316;2023-04-03T08:28:12;6.97;;;2.07;;
6825;SDS011;3451;52.476;13.316;2023-04-03T08:30:39;2.60;;;1.30;;
6825;SDS011;3451;52.476;13.316;2023-04-03T08:33:06;6.90;;;1.90;;
6825;SDS011;3451;52.476;13.316;2023-04-03T08:35:37;4.70;;;1.80;;
6825;SDS011;3451;52.476;13.316;2023-04-03T08:38:04;4.77;;;1.77;;
6825;SDS011;3451;52.476;13.316;2023-04-03T08:40:30;2.93;;;1.30;;
6825;SDS011;3451;52.476;13.316;2023-04-03T08:43:01;3.47;;;1.63;;
6825;SDS011;3451;52.476;13.316;2023-04-03T08:45:37;3.47;;;1.50;;
6825;SDS011;3451;52.476;13.316;2023-04-03T08:50:50;3.37;;;1.57;;
6825;SDS011;3451;52.476;13.316;2023-04-03T08:53:19;5.40;;;1.60;;
6825;SDS011;3451;52.476;13.316;2023-04-03T08:55:51;3.07;;;1.30;;
6825;SDS011;3451;52.476;13.316;2023-04-03T08:58:24;2.60;;;1.80;;
6825;SDS011;3451;52.476;13.316;2023-04-03T09:00:55;5.13;;;1.43;;
6825;SDS011;3451;52.476;13.316;2023-04-03T09:03:23;4.10;;;1.40;;
6825;SDS011;3451;52.476;13.316;2023-04-03T09:05:51;3.17;;;1.50;;
6825;SDS011;3451;52.476;13.316;2023-04-03T09:08:27;5.30;;;1.77;;
6825;SDS011;3451;52.476;13.316;2023-04-03T09:11:03;3.90;;;1.80;;
6825;SDS011;3451;52.476;13.316;2023-04-03T09:13:36;4.50;;;2.03;;
6825;SDS011;3451;52.476;13.316;2023-04-03T09:16:14;6.43;;;1.80;;
6825;SDS011;3451;52.476;13.316;2023-04-03T09:18:44;4.47;;;1.70;;
6825;SDS011;3451;52.476;13.316;2023-04-03T09:21:25;4.00;;;1.57;;
6825;SDS011;3451;52.476;13.316;2023-04-03T09:23:55;4.43;;;1.80;;
6825;SDS011;3451;52.476;13.316;2023-04-03T09:26:30;3.73;;;1.30;;
6825;SDS011;3451;52.476;13.316;2023-04-03T09:29:01;2.03;;;1.20;;
6825;SDS011;3451;52.476;13.316;2023-04-03T09:31:38;3.80;;;1.30;;
6825;SDS011;3451;52.476;13.316;2023-04-03T09:34:15;5.20;;;1.67;;
6825;SDS011;3451;52.476;13.316;2023-04-03T09:36:47;2.83;;;1.57;;
6825;SDS011;3451;52.476;13.316;2023-04-03T09:39:15;6.30;;;1.50;;
6825;SDS011;3451;52.476;13.316;2023-04-03T09:41:43;3.93;;;1.77;;
6825;SDS011;3451;52.476;13.316;2023-04-03T09:44:21;5.70;;;1.77;;
6825;SDS011;3451;52.476;13.316;2023-04-03T09:46:48;4.80;;;1.10;;
6825;SDS011;3451;52.476;13.316;2023-04-03T09:49:14;3.20;;;1.27;;
6825;SDS011;3451;52.476;13.316;2023-04-03T09:51:41;4.20;;;1.40;;
6825;SDS011;3451;52.476;13.316;2023-04-03T09:56:53;3.13;;;1.40;;
6825;SDS011;3451;52.476;13.316;2023-04-03T09:59:20;5.00;;;1.17;;
6825;SDS011;3451;52.476;13.316;2023-04-03T10:01:57;3.60;;;1.37;;
6825;SDS011;3451;52.476;13.316;2023-04-03T10:04:24;4.97;;;1.60;;
6825;SDS011;3451;52.476;13.316;2023-04-03T10:06:52;2.33;;;1.37;;
6825;SDS011;3451;52.476;13.316;2023-04-03T10:09:22;4.73;;;1.40;;
6825;SDS011;3451;52.476;13.316;2023-04-03T10:12:06;2.70;;;1.30;;
6825;SDS011;3451;52.476;13.316;2023-04-03T10:14:33;6.10;;;1.67;;
6825;SDS011;3451;52.476;13.316;2023-04-03T10:17:02;3.00;;;1.60;;
6825;SDS011;3451;52.476;13.316;2023-04-03T10:19:36;3.87;;;1.40;;
6825;SDS011;3451;52.476;13.316;2023-04-03T10:22:49;2.60;;;1.43;;
6825;SDS011;3451;52.476;13.316;2023-04-03T10:25:01;4.60;;;1.90;;
6825;SDS011;3451;52.476;13.316;2023-04-03T10:28:12;3.20;;;1.40;;
6825;SDS011;3451;52.476;13.316;2023-04-03T10:33:17;3.80;;;1.30;;
6825;SDS011;3451;52.476;13.316;2023-04-03T10:35:56;2.97;;;1.40;;
6825;SDS011;3451;52.476;13.316;2023-04-03T10:40:57;2.57;;;1.10;;
6825;SDS011;3451;52.476;13.316;2023-04-03T10:46:18;3.53;;;1.30;;
6825;SDS011;3451;52.476;13.316;2023-04-03T10:48:53;2.67;;;1.37;;
6825;SDS011;3451;52.476;13.316;2023-04-03T10:51:24;3.57;;;1.30;;
6825;SDS011;3451;52.476;13.316;2023-04-03T10:56:32;3.03;;;1.60;;
6825;SDS011;3451;52.476;13.316;2023-04-03T10:59:15;3.70;;;1.27;;
6825;SDS011;3451;52.476;13.316;2023-04-03T11:01:45;1.43;;;1.07;;
6825;SDS011;3451;52.476;13.316;2023-04-03T11:04:12;1.83;;;0.90;;
6825;SDS011;3451;52.476;13.316;2023-04-03T11:06:41;3.07;;;1.23;;
6825;SDS011;3451;52.476;13.316;2023-04-03T11:09:23;1.63;;;1.10;;
6825;SDS011;3451;52.476;13.316;2023-04-03T11:11:51;2.17;;;1.20;;
6825;SDS011;3451;52.476;13.316;2023-04-03T11:14:35;4.10;;;1.27;;
6825;SDS011;3451;52.476;13.316;2023-04-03T11:17:08;3.47;;;1.40;;
6825;SDS011;3451;52.476;13.316;2023-04-03T11:19:57;2.40;;;1.20;;
6825;SDS011;3451;52.476;13.316;2023-04-03T11:24:59;2.97;;;1.07;;
6825;SDS011;3451;52.476;13.316;2023-04-03T11:27:30;4.33;;;1.37;;
6825;SDS011;3451;52.476;13.316;2023-04-03T11:30:00;1.80;;;1.00;;
6825;SDS011;3451;52.476;13.316;2023-04-03T11:32:31;2.83;;;1.30;;
6825;SDS011;3451;52.476;13.316;2023-04-03T11:35:01;4.87;;;1.30;;
6825;SDS011;3451;52.476;13.316;2023-04-03T11:37:33;2.73;;;1.27;;
6825;SDS011;3451;52.476;13.316;2023-04-03T11:40:06;5.53;;;1.27;;
6825;SDS011;3451;52.476;13.316;2023-04-03T11:42:38;3.20;;;1.30;;
6825;SDS011;3451;52.476;13.316;2023-04-03T11:47:54;2.27;;;1.20;;
6825;SDS011;3451;52.476;13.316;2023-04-03T11:52:58;3.97;;;1.30;;
6825;SDS011;3451;52.476;13.316;2023-04-03T12:16:24;3.23;;;1.67;;
6825;SDS011;3451;52.476;13.316;2023-04-03T12:21:20;4.27;;;1.40;;
6825;SDS011;3451;52.476;13.316;2023-04-03T12:24:01;2.67;;;1.50;;
6825;SDS011;3451;52.476;13.316;2023-04-03T12:26:30;2.90;;;1.30;;
6825;SDS011;3451;52.476;13.316;2023-04-03T12:43:05;3.90;;;1.60;;
6825;SDS011;3451;52.476;13.316;2023-04-03T12:45:50;4.73;;;1.30;;
6825;SDS011;3451;52.476;13.316;2023-04-03T12:48:25;1.70;;;1.23;;
6825;SDS011;3451;52.476;13.316;2023-04-03T12:50:52;2.57;;;1.27;;
6825;SDS011;3451;52.476;13.316;2023-04-03T12:53:23;4.80;;;1.40;;
6825;SDS011;3451;52.476;13.316;2023-04-03T12:55:57;3.27;;;1.23;;
6825;SDS011;3451;52.476;13.316;2023-04-03T12:58:43;1.50;;;1.10;;
6825;SDS011;3451;52.476;13.316;2023-04-03T13:01:13;2.80;;;1.40;;
6825;SDS011;3451;52.476;13.316;2023-04-03T13:03:43;3.07;;;1.30;;
6825;SDS011;3451;52.476;13.316;2023-04-03T13:06:10;2.77;;;1.30;;
6825;SDS011;3451;52.476;13.316;2023-04-03T13:08:47;3.20;;;1.17;;
6825;SDS011;3451;52.476;13.316;2023-04-03T13:11:14;2.50;;;1.30;;
6825;SDS011;3451;52.476;13.316;2023-04-03T13:13:53;2.83;;;1.50;;
6825;SDS011;3451;52.476;13.316;2023-04-03T13:16:19;3.60;;;1.57;;
6825;SDS011;3451;52.476;13.316;2023-04-03T13:18:50;2.47;;;1.50;;
6825;SDS011;3451;52.476;13.316;2023-04-03T13:21:17;3.10;;;1.40;;
6825;SDS011;3451;52.476;13.316;2023-04-03T13:23:46;2.37;;;1.30;;
6825;SDS011;3451;52.476;13.316;2023-04-03T13:26:15;3.03;;;1.20;;
6825;SDS011;3451;52.476;13.316;2023-04-03T13:28:42;3.93;;;1.40;;
6825;SDS011;3451;52.476;13.316;2023-04-03T13:34:23;3.20;;;1.43;;
6825;SDS011;3451;52.476;13.316;2023-04-03T13:36:34;4.90;;;1.90;;
6825;SDS011;3451;52.476;13.316;2023-04-03T13:39:06;3.63;;;1.57;;
6825;SDS011;3451;52.476;13.316;2023-04-03T13:41:37;4.20;;;1.80;;
6825;SDS011;3451;52.476;13.316;2023-04-03T13:46:42;3.17;;;1.50;;
6825;SDS011;3451;52.476;13.316;2023-04-03T13:49:22;2.47;;;1.30;;
6825;SDS011;3451;52.476;13.316;2023-04-03T13:51:55;3.57;;;1.67;;
6825;SDS011;3451;52.476;13.316;2023-04-03T13:54:37;5.83;;;1.37;;
6825;SDS011;3451;52.476;13.316;2023-04-03T13:57:10;2.63;;;1.20;;
6825;SDS011;3451;52.476;13.316;2023-04-03T13:59:37;1.93;;;1.30;;
6825;SDS011;3451;52.476;13.316;2023-04-03T14:04:31;4.00;;;1.40;;
6825;SDS011;3451;52.476;13.316;2023-04-03T14:06:57;5.57;;;1.70;;
6825;SDS011;3451;52.476;13.316;2023-04-03T14:09:25;3.03;;;1.40;;
6825;SDS011;3451;52.476;13.316;2023-04-03T14:11:53;4.20;;;1.90;;
6825;SDS011;3451;52.476;13.316;2023-04-03T14:14:22;3.70;;;1.80;;
6825;SDS011;3451;52.476;13.316;2023-04-03T14:16:54;3.43;;;1.60;;
6825;SDS011;3451;52.476;13.316;2023-04-03T14:19:22;2.40;;;1.20;;
6825;SDS011;3451;52.476;13.316;2023-04-03T14:21:50;3.77;;;1.93;;
6825;SDS011;3451;52.476;13.316;2023-04-03T14:24:17;2.77;;;1.53;;
6825;SDS011;3451;52.476;13.316;2023-04-03T14:26:43;2.60;;;1.50;;
6825;SDS011;3451;52.476;13.316;2023-04-03T14:29:10;2.77;;;1.30;;
6825;SDS011;3451;52.476;13.316;2023-04-03T14:31:37;4.57;;;1.37;;
6825;SDS011;3451;52.476;13.316;2023-04-03T14:34:03;3.70;;;1.60;;
6825;SDS011;3451;52.476;13.316;2023-04-03T14:36:30;4.40;;;1.23;;
6825;SDS011;3451;52.476;13.316;2023-04-03T14:38:57;2.60;;;1.20;;
6825;SDS011;3451;52.476;13.316;2023-04-03T14:41:24;3.37;;;1.20;;
6825;SDS011;3451;52.476;13.316;2023-04-03T14:43:51;3.00;;;1.30;;
6825;SDS011;3451;52.476;13.316;2023-04-03T14:46:19;4.67;;;1.33;;
6825;SDS011;3451;52.476;13.316;2023-04-03T14:48:47;2.30;;;1.10;;
6825;SDS011;3451;52.476;13.316;2023-04-03T14:51:13;5.23;;;1.40;;
6825;SDS011;3451;52.476;13.316;2023-04-03T14:53:41;3.70;;;1.33;;
6825;SDS011;3451;52.476;13.316;2023-04-03T14:56:12;4.17;;;1.50;;
6825;SDS011;3451;52.476;13.316;2023-04-03T14:58:38;3.23;;;1.50;;
6825;SDS011;3451;52.476;13.316;2023-04-03T15:01:05;5.70;;;1.80;;
6825;SDS011;3451;52.476;13.316;2023-04-03T15:03:31;1.70;;;1.20;;
6825;SDS011;3451;52.476;13.316;2023-04-03T15:05:58;2.33;;;1.70;;
6825;SDS011;3451;52.476;13.316;2023-04-03T15:08:26;4.97;;;1.40;;
6825;SDS011;3451;52.476;13.316;2023-04-03T15:10:55;2.63;;;1.23;;
6825;SDS011;3451;52.476;13.316;2023-04-03T15:13:24;4.43;;;1.50;;
6825;SDS011;3451;52.476;13.316;2023-04-03T15:15:51;2.93;;;1.50;;
6825;SDS011;3451;52.476;13.316;2023-04-03T15:18:22;4.57;;;1.90;;
6825;SDS011;3451;52.476;13.316;2023-04-03T15:20:49;4.20;;;1.90;;
6825;SDS011;3451;52.476;13.316;2023-04-03T15:23:16;4.17;;;1.90;;
6825;SDS011;3451;52.476;13.316;2023-04-03T15:25:43;6.53;;;2.10;;
6825;SDS011;3451;52.476;13.316;2023-04-03T15:28:22;3.77;;;1.33;;
6825;SDS011;3451;52.476;13.316;2023-04-03T15:30:49;3.20;;;1.30;;
6825;SDS011;3451;52.476;13.316;2023-04-03T15:33:16;3.73;;;1.30;;
6825;SDS011;3451;52.476;13.316;2023-04-03T15:35:42;6.17;;;1.70;;
6825;SDS011;3451;52.476;13.316;2023-04-03T15:38:09;5.03;;;1.60;;
6825;SDS011;3451;52.476;13.316;2023-04-03T15:40:36;5.03;;;1.60;;
6825;SDS011;3451;52.476;13.316;2023-04-03T15:43:02;6.37;;;1.70;;
6825;SDS011;3451;52.476;13.316;2023-04-03T15:45:29;5.57;;;1.53;;
6825;SDS011;3451;52.476;13.316;2023-04-03T15:47:56;3.93;;;1.50;;
6825;SDS011;3451;52.476;13.316;2023-04-03T15:50:23;3.23;;;1.57;;
6825;SDS011;3451;52.476;13.316;2023-04-03T15:52:50;4.70;;;2.00;;
6825;SDS011;3451;52.476;13.316;2023-04-03T15:55:24;6.77;;;1.90;;
6825;SDS011;3451;52.476;13.316;2023-04-03T15:57:51;6.17;;;1.70;;
6825;SDS011;3451;52.476;13.316;2023-04-03T16:00:18;5.47;;;1.63;;
6825;SDS011;3451;52.476;13.316;2023-04-03T16:02:45;8.03;;;1.90;;
6825;SDS011;3451;52.476;13.316;2023-04-03T16:05:11;3.07;;;1.40;;
6825;SDS011;3451;52.476;13.316;2023-04-03T16:07:39;4.73;;;2.00;;
6825;SDS011;3451;52.476;13.316;2023-04-03T16:10:06;2.00;;;1.40;;
6825;SDS011;3451;52.476;13.316;2023-04-03T16:12:32;3.73;;;1.70;;
6825;SDS011;3451;52.476;13.316;2023-04-03T16:14:59;4.50;;;1.53;;
6825;SDS011;3451;52.476;13.316;2023-04-03T16:17:26;2.97;;;1.30;;
6825;SDS011;3451;52.476;13.316;2023-04-03T16:19:53;4.33;;;1.30;;
6825;SDS011;3451;52.476;13.316;2023-04-03T16:22:20;3.30;;;1.40;;
6825;SDS011;3451;52.476;13.316;2023-04-03T16:24:46;4.00;;;1.40;;
6825;SDS011;3451;52.476;13.316;2023-04-03T16:27:13;2.77;;;1.67;;
6825;SDS011;3451;52.476;13.316;2023-04-03T16:29:39;3.80;;;1.67;;
6825;SDS011;3451;52.476;13.316;2023-04-03T16:32:05;2.47;;;1.60;;
6825;SDS011;3451;52.476;13.316;2023-04-03T16:34:32;3.80;;;1.80;;
6825;SDS011;3451;52.476;13.316;2023-04-03T16:36:59;3.87;;;1.60;;
6825;SDS011;3451;52.476;13.316;2023-04-03T16:39:25;5.40;;;1.70;;
6825;SDS011;3451;52.476;13.316;2023-04-03T16:41:52;3.47;;;1.63;;
6825;SDS011;3451;52.476;13.316;2023-04-03T16:44:18;3.97;;;2.10;;
6825;SDS011;3451;52.476;13.316;2023-04-03T16:46:44;5.27;;;1.87;;
6825;SDS011;3451;52.476;13.316;2023-04-03T16:49:13;2.50;;;1.53;;
6825;SDS011;3451;52.476;13.316;2023-04-03T16:51:39;3.73;;;1.50;;